createdAt,value
2023-03-21T00:00:59.669Z,16.20
2023-03-21T00:03:27.513Z,15.98
2023-03-21T00:05:55.113Z,15.57
2023-03-21T00:08:23.571Z,16.35
2023-03-21T00:10:58.364Z,16.00
2023-03-21T00:13:26.636Z,15.32
2023-03-21T00:16:05.170Z,17.15
2023-03-21T00:18:41.924Z,16.77
2023-03-21T00:21:39.234Z,15.40
2023-03-21T00:23:59.509Z,16.27
2023-03-21T00:26:27.043Z,16.88
2023-03-21T00:28:54.529Z,16.17
2023-03-21T00:31:22.105Z,16.55
2023-03-21T00:33:50.450Z,16.40
2023-03-21T00:36:17.926Z,16.92
2023-03-21T00:38:46.046Z,16.35
2023-03-21T00:41:26.175Z,16.52
2023-03-21T00:44:04.165Z,16.60
2023-03-21T00:46:43.666Z,16.58
2023-03-21T00:49:14.790Z,16.40
2023-03-21T00:51:43.809Z,17.05
2023-03-21T00:54:12.617Z,17.42
2023-03-21T00:56:41.675Z,17.77
2023-03-21T00:59:10.608Z,18.80
2023-03-21T01:01:38.181Z,18.23
2023-03-21T01:04:10.954Z,19.08
2023-03-21T01:06:39.645Z,18.02
2023-03-21T01:09:08.150Z,19.30
2023-03-21T01:11:36.878Z,18.33
2023-03-21T01:14:20.826Z,19.20
2023-03-21T01:16:49.360Z,19.13
2023-03-21T01:19:25.545Z,19.45
2023-03-21T01:21:57.584Z,18.75
2023-03-21T01:24:25.575Z,19.85
2023-03-21T01:26:53.043Z,19.15
2023-03-21T01:29:21.161Z,19.42
2023-03-21T01:31:49.047Z,18.77
2023-03-21T01:34:16.689Z,19.80
2023-03-21T01:36:44.436Z,20.00
2023-03-21T01:39:16.826Z,19.95
2023-03-21T01:41:44.966Z,20.33
2023-03-21T01:44:30.840Z,19.13
2023-03-21T01:47:10.351Z,19.58
2023-03-21T01:49:50.595Z,20.30
2023-03-21T01:52:37.417Z,21.15
2023-03-21T01:55:18.977Z,21.40
2023-03-21T01:58:06.781Z,22.48
2023-03-21T02:01:01.201Z,23.67
2023-03-21T02:03:50.586Z,24.27
2023-03-21T02:06:41.559Z,23.75
2023-03-21T02:09:19.692Z,24.60
2023-03-21T02:11:47.586Z,24.63
2023-03-21T02:14:28.474Z,25.13
2023-03-21T02:17:27.140Z,26.05
2023-03-21T02:19:59.918Z,24.52
2023-03-21T02:22:33.852Z,25.85
2023-03-21T02:25:22.681Z,25.90
2023-03-21T02:27:58.021Z,26.70
2023-03-21T02:30:37.459Z,26.40
2023-03-21T02:33:08.289Z,27.48
2023-03-21T02:35:58.636Z,28.35
2023-03-21T02:38:32.291Z,29.40
2023-03-21T02:41:07.671Z,28.83
2023-03-21T02:44:01.093Z,28.40
2023-03-21T02:46:42.962Z,27.92
2023-03-21T02:49:18.696Z,30.05
2023-03-21T02:51:47.048Z,30.90
2023-03-21T02:54:30.412Z,30.90
2023-03-21T02:57:04.980Z,29.90
2023-03-21T02:59:35.785Z,30.95
2023-03-21T03:02:08.174Z,30.63
2023-03-21T03:04:36.055Z,30.02
2023-03-21T03:07:19.012Z,29.65
2023-03-21T03:09:55.722Z,31.55
2023-03-21T03:12:23.239Z,32.63
2023-03-21T03:15:03.203Z,32.10
2023-03-21T03:17:37.438Z,30.17
2023-03-21T03:20:17.472Z,30.85
2023-03-21T03:22:56.138Z,31.60
2023-03-21T03:25:56.457Z,30.85
2023-03-21T03:28:27.316Z,30.73
2023-03-21T03:31:08.230Z,31.48
2023-03-21T03:33:46.902Z,31.20
2023-03-21T03:36:33.523Z,31.77
2023-03-21T03:39:10.416Z,31.02
2023-03-21T03:44:42.245Z,31.40
2023-03-21T03:47:22.892Z,32.92
2023-03-21T03:50:10.625Z,33.20
2023-03-21T03:52:53.597Z,32.95
2023-03-21T03:55:26.599Z,32.95
2023-03-21T03:57:56.112Z,31.60
2023-03-21T04:00:23.864Z,33.72
2023-03-21T04:02:52.281Z,32.88
2023-03-21T04:05:24.487Z,33.15
2023-03-21T04:07:52.024Z,32.58
2023-03-21T04:10:26.630Z,31.85
2023-03-21T04:12:54.845Z,33.10
2023-03-21T04:15:37.476Z,33.03
2023-03-21T04:18:11.947Z,31.33
2023-03-21T04:20:39.440Z,32.58
2023-03-21T04:23:08.725Z,32.75
2023-03-21T04:25:38.725Z,32.78
2023-03-21T04:28:08.328Z,33.42
2023-03-21T04:33:26.489Z,32.38
2023-03-21T04:35:59.285Z,32.75
2023-03-21T04:38:30.953Z,32.45
2023-03-21T04:41:03.410Z,32.17
2023-03-21T04:43:32.181Z,32.40
2023-03-21T04:45:59.806Z,30.80
2023-03-21T04:48:28.036Z,32.55
2023-03-21T04:50:56.704Z,33.13
2023-03-21T04:53:24.304Z,32.65
2023-03-21T04:55:55.199Z,33.70
2023-03-21T04:58:24.239Z,33.33
2023-03-21T05:00:53.100Z,34.05
2023-03-21T05:03:21.925Z,32.40
2023-03-21T05:05:49.725Z,32.00
2023-03-21T05:08:19.484Z,33.75
2023-03-21T05:10:47.216Z,35.35
2023-03-21T05:13:14.719Z,33.13
2023-03-21T05:15:42.139Z,32.92
2023-03-21T05:18:12.433Z,30.83
2023-03-21T05:20:57.856Z,31.77
2023-03-21T05:23:25.987Z,31.58
2023-03-21T05:25:53.493Z,30.88
2023-03-21T05:28:36.790Z,30.20
2023-03-21T05:31:05.403Z,30.92
2023-03-21T05:33:33.760Z,30.90
2023-03-21T05:36:01.307Z,31.15
2023-03-21T05:38:32.022Z,30.30
2023-03-21T05:40:59.945Z,30.52
2023-03-21T05:43:27.895Z,30.02
2023-03-21T05:45:55.961Z,29.23
2023-03-21T05:48:24.866Z,31.20
2023-03-21T05:51:06.747Z,29.58
2023-03-21T05:53:34.795Z,30.65
2023-03-21T05:56:02.260Z,29.70
2023-03-21T05:58:41.582Z,30.40
2023-03-21T06:01:09.221Z,29.77
2023-03-21T06:03:39.342Z,34.33
2023-03-21T06:06:13.192Z,30.98
2023-03-21T06:08:49.013Z,32.30
2023-03-21T06:11:27.865Z,29.00
2023-03-21T06:14:12.229Z,32.50
2023-03-21T06:16:40.776Z,30.10
2023-03-21T06:19:08.229Z,29.30
2023-03-21T06:22:00.556Z,29.65
2023-03-21T06:24:28.296Z,28.45
2023-03-21T06:26:56.181Z,27.17
2023-03-21T06:29:26.141Z,27.02
2023-03-21T06:31:53.618Z,27.02
2023-03-21T06:34:21.969Z,26.17
2023-03-21T06:36:49.581Z,25.55
2023-03-21T06:39:19.137Z,26.40
2023-03-21T06:41:46.823Z,24.00
2023-03-21T06:44:14.439Z,24.98
2023-03-21T06:46:51.020Z,23.83
2023-03-21T06:49:20.212Z,24.10
2023-03-21T06:51:47.817Z,22.92
2023-03-21T06:54:19.169Z,23.20
2023-03-21T06:57:02.199Z,22.88
2023-03-21T06:59:33.850Z,21.27
2023-03-21T07:02:04.300Z,20.92
2023-03-21T07:04:35.963Z,20.58
2023-03-21T07:07:03.643Z,20.27
2023-03-21T07:09:31.699Z,19.63
2023-03-21T07:12:04.614Z,19.23
2023-03-21T07:14:45.350Z,20.38
2023-03-21T07:17:12.842Z,19.45
2023-03-21T07:19:40.241Z,19.95
2023-03-21T07:22:07.880Z,18.75
2023-03-21T07:24:36.534Z,20.02
2023-03-21T07:27:03.989Z,19.60
2023-03-21T07:29:31.592Z,19.85
2023-03-21T07:31:59.093Z,19.70
2023-03-21T07:34:27.407Z,19.55
2023-03-21T07:36:55.038Z,20.30
2023-03-21T07:39:23.657Z,18.85
2023-03-21T07:41:52.984Z,20.02
2023-03-21T07:44:30.998Z,19.67
2023-03-21T07:47:03.655Z,19.02
2023-03-21T07:49:31.219Z,18.45
2023-03-21T07:51:59.694Z,18.73
2023-03-21T07:54:28.626Z,18.48
2023-03-21T07:56:56.767Z,15.98
2023-03-21T07:59:24.658Z,18.02
2023-03-21T08:01:52.111Z,16.60
2023-03-21T08:04:19.662Z,18.35
2023-03-21T08:06:47.072Z,18.48
2023-03-21T08:09:14.614Z,18.90
2023-03-21T08:11:42.067Z,20.70
2023-03-21T08:14:09.538Z,20.05
2023-03-21T08:16:37.023Z,19.92
2023-03-21T08:19:04.617Z,20.17
2023-03-21T08:21:32.019Z,19.40
2023-03-21T08:23:59.522Z,19.35
2023-03-21T08:26:26.996Z,18.70
2023-03-21T08:28:54.508Z,17.83
2023-03-21T08:31:22.315Z,18.40
2023-03-21T08:33:54.391Z,17.58
2023-03-21T08:36:25.509Z,19.02
2023-03-21T08:39:04.476Z,20.52
2023-03-21T08:41:35.977Z,19.10
2023-03-21T08:44:04.462Z,18.23
2023-03-21T08:46:32.208Z,18.05
2023-03-21T08:48:59.784Z,17.45
2023-03-21T08:51:27.212Z,19.40
2023-03-21T08:53:54.684Z,20.15
2023-03-21T08:56:22.128Z,16.58
2023-03-21T08:58:49.792Z,19.13
2023-03-21T09:01:17.331Z,16.00
2023-03-21T09:03:44.884Z,15.15
2023-03-21T09:06:14.338Z,14.80
2023-03-21T09:08:42.337Z,15.18
2023-03-21T09:11:10.775Z,16.17
2023-03-21T09:13:38.289Z,16.15
2023-03-21T09:16:05.820Z,16.23
2023-03-21T09:18:45.672Z,16.42
2023-03-21T09:21:14.624Z,15.75
2023-03-21T09:23:42.573Z,15.90
2023-03-21T09:26:10.806Z,15.15
2023-03-21T09:28:39.019Z,14.95
2023-03-21T09:31:08.421Z,14.65
2023-03-21T09:33:36.199Z,15.57
2023-03-21T09:36:12.912Z,15.10
2023-03-21T09:38:42.958Z,14.43
2023-03-21T09:41:17.611Z,15.00
2023-03-21T09:44:03.688Z,15.23
2023-03-21T09:46:34.432Z,15.43
2023-03-21T09:49:09.991Z,16.77
2023-03-21T09:51:40.539Z,16.58
2023-03-21T09:54:14.171Z,17.92
2023-03-21T09:56:42.445Z,15.95
2023-03-21T09:59:11.572Z,17.65
2023-03-21T10:01:45.588Z,14.90
2023-03-21T10:04:15.379Z,14.93
2023-03-21T10:06:45.881Z,15.95
2023-03-21T10:09:22.877Z,16.02
2023-03-21T10:11:56.991Z,15.02
2023-03-21T10:14:31.227Z,14.77
2023-03-21T10:17:01.187Z,18.83
2023-03-21T10:19:28.939Z,14.90
2023-03-21T10:22:01.142Z,20.75
2023-03-21T10:24:30.421Z,16.95
2023-03-21T10:26:57.951Z,14.75
2023-03-21T10:29:28.426Z,13.90
2023-03-21T10:31:56.270Z,14.57
2023-03-21T10:34:38.536Z,14.55
2023-03-21T10:37:06.363Z,15.25
2023-03-21T10:39:38.541Z,16.67
2023-03-21T10:42:06.746Z,14.65
2023-03-21T10:44:35.659Z,15.15
2023-03-21T10:47:10.312Z,14.05
2023-03-21T10:50:05.876Z,13.05
2023-03-21T10:52:28.542Z,13.15
2023-03-21T10:55:15.103Z,13.45
2023-03-21T10:57:42.641Z,12.52
2023-03-21T11:00:18.282Z,12.35
2023-03-21T11:02:48.360Z,13.38
2023-03-21T11:05:22.885Z,13.52
2023-03-21T11:08:00.708Z,13.25
2023-03-21T11:10:30.984Z,13.82
2023-03-21T11:13:02.540Z,13.23
2023-03-21T11:15:32.848Z,14.48
2023-03-21T11:18:01.059Z,13.65
2023-03-21T11:20:31.583Z,13.98
2023-03-21T11:22:59.090Z,13.80
2023-03-21T11:25:33.593Z,13.95
2023-03-21T11:28:07.148Z,13.82
2023-03-21T11:30:34.814Z,14.20
2023-03-21T11:33:06.270Z,14.30
2023-03-21T11:35:35.331Z,18.30
2023-03-21T11:38:03.087Z,21.35
2023-03-21T11:40:31.633Z,17.75
2023-03-21T11:43:19.279Z,16.52
2023-03-21T11:46:01.173Z,18.77
2023-03-21T11:48:29.750Z,15.52
2023-03-21T11:51:04.830Z,15.93
2023-03-21T11:53:41.803Z,14.30
2023-03-21T11:56:18.336Z,14.15
2023-03-21T11:58:57.764Z,13.77
2023-03-21T12:01:43.735Z,15.32
2023-03-21T12:04:20.868Z,21.10
2023-03-21T12:06:48.354Z,22.83
2023-03-21T12:09:18.787Z,17.95
2023-03-21T12:11:53.217Z,19.45
2023-03-21T12:14:23.697Z,18.23
2023-03-21T12:16:54.233Z,17.67
2023-03-21T12:19:40.349Z,19.80
2023-03-21T12:22:13.956Z,16.45
2023-03-21T12:24:50.509Z,17.15
2023-03-21T12:27:27.089Z,16.88
2023-03-21T12:30:13.139Z,15.98
2023-03-21T12:33:09.714Z,17.30
2023-03-21T12:35:55.790Z,17.15
2023-03-21T12:38:29.351Z,17.45
2023-03-21T12:41:10.476Z,16.23
2023-03-21T12:43:57.163Z,17.63
2023-03-21T12:46:32.308Z,15.85
2023-03-21T12:49:10.765Z,23.98
2023-03-21T12:51:40.655Z,23.75
2023-03-21T12:54:26.173Z,19.63
2023-03-21T12:57:12.586Z,19.75
2023-03-21T12:59:40.306Z,19.02
2023-03-21T13:02:16.902Z,18.45
2023-03-21T13:05:07.272Z,18.05
2023-03-21T13:07:37.230Z,16.38
2023-03-21T13:10:13.070Z,19.75
2023-03-21T13:12:40.501Z,20.35
2023-03-21T13:15:12.596Z,21.30
2023-03-21T13:17:52.011Z,25.75
2023-03-21T13:20:28.593Z,21.48
2023-03-21T13:22:56.161Z,18.77
2023-03-21T13:25:25.043Z,20.42
2023-03-21T13:28:01.139Z,18.27
2023-03-21T13:30:29.898Z,20.58
2023-03-21T13:33:06.315Z,18.25
2023-03-21T13:35:44.415Z,18.85
2023-03-21T13:38:16.836Z,19.15
2023-03-21T13:40:46.050Z,20.52
2023-03-21T13:43:39.857Z,19.05
2023-03-21T13:46:07.307Z,18.05
2023-03-21T13:48:58.772Z,17.88
2023-03-21T13:51:29.820Z,27.13
2023-03-21T13:54:04.951Z,27.52
2023-03-21T13:56:52.343Z,30.80
2023-03-21T13:59:39.089Z,29.95
2023-03-21T14:02:24.582Z,21.00
2023-03-21T14:05:07.138Z,17.70
2023-03-21T14:07:34.772Z,16.95
2023-03-21T14:10:05.108Z,17.67
2023-03-21T14:12:41.996Z,21.90
2023-03-21T14:15:17.940Z,21.00
2023-03-21T14:18:21.635Z,16.45
2023-03-21T14:21:02.145Z,15.50
2023-03-21T14:23:29.772Z,36.85
2023-03-21T14:25:57.228Z,64.78
2023-03-21T14:28:29.595Z,44.55
2023-03-21T14:30:58.932Z,37.35
2023-03-21T14:33:32.650Z,22.40
2023-03-21T14:36:02.497Z,18.23
2023-03-21T14:38:35.163Z,15.95
2023-03-21T14:41:02.754Z,16.52
2023-03-21T14:43:34.052Z,16.45
2023-03-21T14:46:01.868Z,16.33
2023-03-21T14:48:30.399Z,17.45
2023-03-21T14:51:02.050Z,17.60
2023-03-21T14:53:34.165Z,17.45
2023-03-21T14:56:08.391Z,15.95
2023-03-21T14:58:39.071Z,53.60
2023-03-21T15:01:08.816Z,60.75
2023-03-21T15:03:37.569Z,61.55
2023-03-21T15:06:05.688Z,46.00
2023-03-21T15:08:33.349Z,29.92
2023-03-21T15:11:07.703Z,19.58
2023-03-21T15:16:03.630Z,21.75
2023-03-21T15:18:32.656Z,27.13
2023-03-21T15:21:04.360Z,66.53
2023-03-21T15:23:33.742Z,66.95
2023-03-21T15:26:03.527Z,48.83
2023-03-21T15:28:31.737Z,56.90
2023-03-21T15:30:59.247Z,36.40
2023-03-21T15:33:27.207Z,29.15
2023-03-21T15:35:56.065Z,30.83
2023-03-21T15:38:29.765Z,34.67
2023-03-21T15:41:16.572Z,31.88
2023-03-21T15:43:44.353Z,38.35
2023-03-21T15:46:19.440Z,35.10
2023-03-21T15:48:46.970Z,26.23
2023-03-21T15:51:22.316Z,29.55
2023-03-21T15:53:53.280Z,19.95
2023-03-21T15:56:22.754Z,18.52
2023-03-21T15:58:53.101Z,19.25
2023-03-21T16:01:22.261Z,19.80
2023-03-21T16:03:55.892Z,50.75
2023-03-21T16:06:25.756Z,48.78
2023-03-21T16:09:14.372Z,53.85
2023-03-21T16:11:49.212Z,36.88
2023-03-21T16:14:18.683Z,35.35
2023-03-21T16:16:46.761Z,37.90
2023-03-21T16:19:14.750Z,33.92
2023-03-21T16:21:42.221Z,28.33
2023-03-21T16:24:11.673Z,24.10
2023-03-21T16:26:43.577Z,21.92
2023-03-21T16:29:12.120Z,20.40
2023-03-21T16:31:39.570Z,19.80
2023-03-21T16:34:07.172Z,19.15
2023-03-21T16:36:37.168Z,19.83
2023-03-21T16:39:17.052Z,20.30
2023-03-21T16:41:44.572Z,20.95
2023-03-21T16:44:12.242Z,23.30
2023-03-21T16:46:39.757Z,43.33
2023-03-21T16:49:15.954Z,39.97
2023-03-21T16:51:43.367Z,31.27
2023-03-21T16:54:10.856Z,23.98
2023-03-21T16:56:39.966Z,23.60
2023-03-21T16:59:08.059Z,22.77
2023-03-21T17:01:38.432Z,22.88
2023-03-21T17:04:05.942Z,23.38
2023-03-21T17:06:33.392Z,22.90
2023-03-21T17:09:01.694Z,21.25
2023-03-21T17:11:33.984Z,24.15
2023-03-21T17:14:02.401Z,22.60
2023-03-21T17:16:30.150Z,24.58
2023-03-21T17:18:57.627Z,23.48
2023-03-21T17:21:26.643Z,22.13
2023-03-21T17:23:54.497Z,22.20
2023-03-21T17:26:28.666Z,22.95
2023-03-21T17:29:03.192Z,21.37
2023-03-21T17:31:33.891Z,23.60
2023-03-21T17:34:03.448Z,26.73
2023-03-21T17:36:34.088Z,26.65
2023-03-21T17:39:01.880Z,25.60
2023-03-21T17:41:29.320Z,24.77
2023-03-21T17:43:57.029Z,25.15
2023-03-21T17:46:25.541Z,25.92
2023-03-21T17:48:52.985Z,27.33
2023-03-21T17:51:23.063Z,25.67
2023-03-21T17:53:51.453Z,24.58
2023-03-21T17:56:21.570Z,24.33
2023-03-21T17:58:49.090Z,24.17
2023-03-21T18:01:16.544Z,23.60
2023-03-21T18:03:45.067Z,24.45
2023-03-21T18:06:16.553Z,23.98
2023-03-21T18:08:44.853Z,23.52
2023-03-21T18:11:15.824Z,23.90
2023-03-21T18:13:44.124Z,23.08
2023-03-21T18:16:16.674Z,24.92
2023-03-21T18:18:45.491Z,25.88
2023-03-21T18:21:19.474Z,26.20
2023-03-21T18:23:48.195Z,25.77
2023-03-21T18:26:17.609Z,24.80
2023-03-21T18:28:45.520Z,25.40
2023-03-21T18:31:19.816Z,23.58
2023-03-21T18:33:49.038Z,25.70
2023-03-21T18:36:24.475Z,23.02
2023-03-21T18:38:53.106Z,21.95
2023-03-21T18:41:22.761Z,23.92
2023-03-21T18:44:14.238Z,23.23
2023-03-21T18:46:38.140Z,22.92
2023-03-21T18:49:42.251Z,21.35
2023-03-21T18:51:52.965Z,23.02
2023-03-21T18:54:21.444Z,21.73
2023-03-21T18:57:34.196Z,22.55
2023-03-21T18:59:39.479Z,25.08
2023-03-21T19:02:07.313Z,23.20
2023-03-21T19:04:37.319Z,23.30
2023-03-21T19:07:05.260Z,21.45
2023-03-21T19:09:54.774Z,22.48
2023-03-21T19:12:21.344Z,20.77
2023-03-21T19:14:49.001Z,22.02
2023-03-21T19:18:15.313Z,21.08
2023-03-21T19:20:05.784Z,20.55
2023-03-21T19:22:33.226Z,21.52
2023-03-21T19:25:00.835Z,20.33
2023-03-21T19:27:28.356Z,20.48
2023-03-21T19:30:10.815Z,20.65
2023-03-21T19:32:41.513Z,20.45
2023-03-21T19:35:09.425Z,21.10
2023-03-21T19:37:37.634Z,21.17
2023-03-21T19:40:06.245Z,22.67
2023-03-21T19:42:36.317Z,22.73
2023-03-21T19:45:04.938Z,22.58
2023-03-21T19:47:32.778Z,23.15
2023-03-21T19:52:48.003Z,22.85
2023-03-21T19:55:15.462Z,24.90
2023-03-21T19:57:42.957Z,23.05
2023-03-21T20:00:11.593Z,24.42
2023-03-21T20:02:39.659Z,23.80
2023-03-21T20:05:07.875Z,22.83
2023-03-21T20:07:35.558Z,21.95
2023-03-21T20:10:03.285Z,22.65
2023-03-21T20:12:32.650Z,22.88
2023-03-21T20:15:12.198Z,23.17
2023-03-21T20:17:44.475Z,23.00
2023-03-21T20:20:15.393Z,23.65
2023-03-21T20:23:05.647Z,23.10
2023-03-21T20:25:32.692Z,23.70
2023-03-21T20:28:15.076Z,23.52
2023-03-21T20:30:47.433Z,24.02
2023-03-21T20:33:15.089Z,23.40
2023-03-21T20:38:31.014Z,24.05
2023-03-21T20:40:58.862Z,25.50
2023-03-21T20:44:14.366Z,23.42
2023-03-21T20:46:16.193Z,23.30
2023-03-21T20:48:43.661Z,23.73
2023-03-21T20:54:00.222Z,23.70
2023-03-21T20:56:27.663Z,25.30
2023-03-21T20:59:11.855Z,26.55
2023-03-21T21:01:43.273Z,25.60
2023-03-21T21:04:11.674Z,25.60
2023-03-21T21:06:39.248Z,24.98
2023-03-21T21:09:06.644Z,24.75
2023-03-21T21:14:21.592Z,25.92
2023-03-21T21:16:48.997Z,26.33
2023-03-21T21:19:18.888Z,26.38
2023-03-21T21:21:46.925Z,26.55
2023-03-21T21:24:14.828Z,26.35
2023-03-21T21:26:46.263Z,27.15
2023-03-21T21:29:17.634Z,26.70
2023-03-21T21:31:52.059Z,27.05
2023-03-21T21:34:19.888Z,26.42
2023-03-21T21:36:47.436Z,27.33
2023-03-21T21:39:17.754Z,27.55
2023-03-21T21:41:45.177Z,28.45
2023-03-21T21:44:12.559Z,27.60
2023-03-21T21:46:40.174Z,29.33
2023-03-21T21:49:07.629Z,28.95
2023-03-21T21:51:36.283Z,29.88
2023-03-21T21:54:03.934Z,28.55
2023-03-21T21:56:36.373Z,28.98
2023-03-21T21:59:05.544Z,28.13
2023-03-21T22:01:38.615Z,27.48
2023-03-21T22:04:08.177Z,28.73
2023-03-21T22:06:36.143Z,28.45
2023-03-21T22:09:05.532Z,28.42
2023-03-21T22:11:32.974Z,28.27
2023-03-21T22:14:00.468Z,28.38
2023-03-21T22:16:27.945Z,27.92
2023-03-21T22:18:55.449Z,27.30
2023-03-21T22:21:22.829Z,28.80
2023-03-21T22:23:50.370Z,29.30
2023-03-21T22:26:17.922Z,28.80
2023-03-21T22:28:45.426Z,30.92
2023-03-21T22:31:14.477Z,29.40
2023-03-21T22:33:42.414Z,27.35
2023-03-21T22:36:10.463Z,28.52
2023-03-21T22:38:38.534Z,29.33
2023-03-21T22:41:06.597Z,28.17
2023-03-21T22:43:35.313Z,28.30
2023-03-21T22:46:06.580Z,28.20
2023-03-21T22:48:34.834Z,27.92
2023-03-21T22:51:02.597Z,27.75
2023-03-21T22:53:30.504Z,27.10
2023-03-21T22:55:57.965Z,26.75
2023-03-21T22:58:25.844Z,25.42
2023-03-21T23:00:53.242Z,27.17
2023-03-21T23:03:20.828Z,26.23
2023-03-21T23:05:48.249Z,26.83
2023-03-21T23:08:16.064Z,26.95
2023-03-21T23:10:45.380Z,26.15
2023-03-21T23:13:12.972Z,27.35
2023-03-21T23:15:40.726Z,25.73
2023-03-21T23:18:08.153Z,26.08
2023-03-21T23:20:35.726Z,27.05
2023-03-21T23:23:03.173Z,26.55
2023-03-21T23:25:30.692Z,26.88
2023-03-21T23:27:58.125Z,26.88
2023-03-21T23:30:25.761Z,26.52
2023-03-21T23:32:53.140Z,26.73
2023-03-21T23:35:20.676Z,25.95
2023-03-21T23:37:52.542Z,26.00
2023-03-21T23:40:20.414Z,26.42
2023-03-21T23:42:47.761Z,26.35
2023-03-21T23:45:15.648Z,26.42
2023-03-21T23:47:43.177Z,25.77
2023-03-21T23:50:11.588Z,26.10
2023-03-21T23:52:41.617Z,25.27
2023-03-21T23:55:09.685Z,26.15
2023-03-21T23:57:41.728Z,26.98
